Time,TemperatureF,DewpointF,PressureIn,WindDirection,WindDirectionDegrees,WindSpeedMPH,WindSpeedGustMPH,Humidity,HourlyPrecipIn,Conditions,Clouds,dailyrainin,SolarRadiationWatts/m^2,SoftwareType,DateUTC
2013-01-11 00:01:00,75.4,68.4,30.20,SSE,153,11.0,11.0,79,0.00,,SCT060,0.08,0.00,VWS V14.00,2013-01-11 05:01:00,
2013-01-11 00:03:00,75.4,68.4,30.20,SSE,152,3.0,8.0,79,0.00,,SCT060,0.00,0.00,VWS V14.00,2013-01-11 05:03:00,
2013-01-11 00:08:00,75.4,68.4,30.20,SSE,158,7.0,11.0,79,0.00,,SCT060,0.00,0.00,VWS V14.00,2013-01-11 05:08:00,
2013-01-11 00:13:00,75.3,68.3,30.20,SSE,161,3.0,6.0,79,0.00,,SCT060,0.00,0.00,VWS V14.00,2013-01-11 05:13:00,
2013-01-11 00:18:00,75.2,67.9,30.20,SSE,157,3.0,10.0,78,0.00,,SCT060,0.00,0.00,VWS V14.00,2013-01-11 05:18:00,
2013-01-11 00:23:00,75.1,68.2,30.21,SSE,167,7.0,13.0,79,0.00,,SCT060,0.00,0.00,VWS V14.00,2013-01-11 05:23:00,
2013-01-11 00:28:00,74.9,67.9,30.20,SSE,167,0.0,9.0,79,0.00,,SCT060,0.00,0.00,VWS V14.00,2013-01-11 05:28:00,
2013-01-11 00:33:00,74.8,67.5,30.21,SE,142,0.0,3.0,78,0.00,,SCT060,0.00,0.00,VWS V14.00,2013-01-11 05:33:00,
2013-01-11 00:38:00,74.6,67.3,30.20,SE,144,2.0,4.0,78,0.00,,SCT060,0.00,0.00,VWS V14.00,2013-01-11 05:38:00,
2013-01-11 00:43:00,74.5,67.2,30.20,SSE,147,3.0,6.0,78,0.00,,SCT060,0.00,0.00,VWS V14.00,2013-01-11 05:43:00,
2013-01-11 00:48:00,74.4,67.1,30.21,SSE,147,3.0,4.0,78,0.00,,SCT060,0.00,0.00,VWS V14.00,2013-01-11 05:48:00,
2013-01-11 00:53:00,74.3,67.0,30.21,SSE,147,1.0,3.0,78,0.00,,SCT060,0.00,0.00,VWS V14.00,2013-01-11 05:53:00,
2013-01-11 00:58:00,74.2,67.3,30.21,SSE,147,4.0,4.0,79,0.00,,SCT060,0.00,0.00,VWS V14.00,2013-01-11 05:58:00,
2013-01-11 01:03:00,74.2,67.6,30.21,SSE,147,5.0,5.0,80,0.00,,SCT060,0.00,0.00,VWS V14.00,2013-01-11 06:03:00,
2013-01-11 01:08:00,74.1,67.5,30.20,SSE,147,0.0,3.0,80,0.00,,SCT060,0.00,0.00,VWS V14.00,2013-01-11 06:08:00,
2013-01-11 01:13:00,74.0,67.4,30.20,SSE,147,2.0,4.0,80,0.00,,SCT060,0.00,0.00,VWS V14.00,2013-01-11 06:13:00,
2013-01-11 01:18:00,73.9,67.3,30.20,SSE,147,0.0,1.0,80,0.00,,SCT060,0.00,0.00,VWS V14.00,2013-01-11 06:18:00,
2013-01-11 01:23:00,73.8,67.6,30.20,SSE,147,0.0,0.0,81,0.00,,SCT060,0.00,0.00,VWS V14.00,2013-01-11 06:23:00,
2013-01-11 01:28:00,73.6,67.4,30.20,SSE,147,1.0,5.0,81,0.00,,SCT060,0.00,0.00,VWS V14.00,2013-01-11 06:28:00,
2013-01-11 01:33:00,73.5,67.3,30.20,SSE,147,0.0,1.0,81,0.00,,SCT060,0.00,0.00,VWS V14.00,2013-01-11 06:33:00,
2013-01-11 01:38:00,73.5,67.3,30.20,SSE,147,4.0,6.0,81,0.00,,SCT060,0.00,0.00,VWS V14.00,2013-01-11 06:38:00,
2013-01-11 01:44:00,73.5,67.3,30.20,SSE,148,5.0,7.0,81,0.00,,SCT060,0.00,0.00,VWS V14.00,2013-01-11 06:44:00,
2013-01-11 01:49:00,73.5,67.0,30.20,SSE,148,1.0,2.0,80,0.00,,SCT060,0.00,0.00,VWS V14.00,2013-01-11 06:49:00,
2013-01-11 01:54:00,73.5,67.0,30.19,SSE,148,1.0,5.0,80,0.00,,SCT060,0.00,0.00,VWS V14.00,2013-01-11 06:54:00,
2013-01-11 01:59:00,73.4,66.9,30.20,SSE,148,0.0,3.0,80,0.00,,SCT060,0.00,0.00,VWS V14.00,2013-01-11 06:59:00,
2013-01-11 02:04:00,73.3,66.8,30.19,SSE,148,0.0,0.0,80,0.00,,SCT060,0.00,0.00,VWS V14.00,2013-01-11 07:04:00,
2013-01-11 02:09:00,73.2,67.0,30.19,SSE,148,0.0,1.0,81,0.00,,SCT060,0.00,0.00,VWS V14.00,2013-01-11 07:09:00,
2013-01-11 02:14:00,73.1,66.9,30.19,SSE,148,0.0,0.0,81,0.00,,SCT060,0.00,0.00,VWS V14.00,2013-01-11 07:14:00,
2013-01-11 02:19:00,73.0,66.8,30.19,SSE,148,0.0,0.0,81,0.00,,SCT060,0.00,0.00,VWS V14.00,2013-01-11 07:19:00,
2013-01-11 02:24:00,72.9,67.1,30.19,SSE,148,0.0,1.0,82,0.00,,SCT060,0.00,0.00,VWS V14.00,2013-01-11 07:24:00,
2013-01-11 02:29:00,72.7,66.9,30.18,SSE,148,0.0,2.0,82,0.00,,SCT060,0.00,0.00,VWS V14.00,2013-01-11 07:29:00,
2013-01-11 02:34:00,72.6,66.8,30.18,SSE,148,0.0,1.0,82,0.00,,SCT060,0.00,0.00,VWS V14.00,2013-01-11 07:34:00,
2013-01-11 02:39:00,72.5,66.7,30.18,SSE,148,1.0,3.0,82,0.00,,SCT060,0.00,0.00,VWS V14.00,2013-01-11 07:39:00,
2013-01-11 02:44:00,72.3,66.5,30.18,SSE,148,1.0,1.0,82,0.00,,SCT060,0.00,0.00,VWS V14.00,2013-01-11 07:44:00,
2013-01-11 02:49:00,72.2,66.4,30.17,SSE,148,0.0,0.0,82,0.00,,SCT060,0.00,0.00,VWS V14.00,2013-01-11 07:49:00,
2013-01-11 02:54:00,72.0,66.2,30.17,SSE,148,0.0,0.0,82,0.00,,SCT060,0.00,0.00,VWS V14.00,2013-01-11 07:54:00,
2013-01-11 02:59:00,71.9,66.5,30.17,SSE,148,0.0,0.0,83,0.00,,SCT060,0.00,0.00,VWS V14.00,2013-01-11 07:59:00,
2013-01-11 03:04:00,71.8,66.4,30.17,SSE,148,0.0,1.0,83,0.00,,SCT060,0.00,0.00,VWS V14.00,2013-01-11 08:04:00,
2013-01-11 03:09:00,71.7,66.3,30.17,SSE,148,0.0,0.0,83,0.00,,SCT060,0.00,0.00,VWS V14.00,2013-01-11 08:09:00,
2013-01-11 03:14:00,71.7,66.6,30.17,SSE,148,0.0,0.0,84,0.00,,SCT060,0.00,0.00,VWS V14.00,2013-01-11 08:14:00,
2013-01-11 03:19:00,71.6,66.5,30.16,SSE,148,0.0,0.0,84,0.00,,SCT060,0.00,0.00,VWS V14.00,2013-01-11 08:19:00,
2013-01-11 03:24:00,71.6,66.5,30.16,SSE,148,0.0,0.0,84,0.00,,SCT060,0.00,0.00,VWS V14.00,2013-01-11 08:24:00,
2013-01-11 03:29:00,71.6,66.5,30.16,SSE,148,0.0,0.0,84,0.00,,SCT060,0.00,0.00,VWS V14.00,2013-01-11 08:29:00,
2013-01-11 03:34:00,71.6,66.5,30.16,SSE,148,0.0,1.0,84,0.00,,SCT060,0.00,0.00,VWS V14.00,2013-01-11 08:34:00,
2013-01-11 03:39:00,71.7,66.9,30.15,SSE,148,3.0,4.0,85,0.00,,SCT060,0.00,0.00,VWS V14.00,2013-01-11 08:39:00,
2013-01-11 03:44:00,72.0,67.2,30.15,SSE,148,5.0,5.0,85,0.00,,SCT060,0.00,0.00,VWS V14.00,2013-01-11 08:44:00,
2013-01-11 03:49:00,72.4,67.6,30.14,SSE,150,0.0,7.0,85,0.00,,SCT060,0.00,0.00,VWS V14.00,2013-01-11 08:49:00,
2013-01-11 03:54:00,72.7,67.9,30.14,SSE,151,0.0,6.0,85,0.00,,SCT060,0.00,0.00,VWS V14.00,2013-01-11 08:54:00,
2013-01-11 03:59:00,73.0,68.2,30.15,SSE,161,2.0,8.0,85,0.00,,SCT060,0.00,0.00,VWS V14.00,2013-01-11 08:59:00,
2013-01-11 04:04:00,73.1,68.3,30.14,SSE,163,2.0,9.0,85,0.00,,SCT060,0.00,0.00,VWS V14.00,2013-01-11 09:04:00,
2013-01-11 04:09:00,73.1,68.0,30.14,SSE,163,2.0,5.0,84,0.00,,SCT060,0.00,0.00,VWS V14.00,2013-01-11 09:09:00,
2013-01-11 04:14:00,73.2,68.1,30.14,SSE,163,6.0,6.0,84,0.00,,SCT060,0.00,0.00,VWS V14.00,2013-01-11 09:14:00,
2013-01-11 04:19:00,73.2,68.1,30.14,SSE,168,1.0,10.0,84,0.00,,SCT060,0.00,0.00,VWS V14.00,2013-01-11 09:19:00,
2013-01-11 04:24:00,73.3,68.2,30.14,SSE,168,2.0,3.0,84,0.00,,SCT060,0.00,0.00,VWS V14.00,2013-01-11 09:24:00,
2013-01-11 04:29:00,73.3,68.2,30.14,SSE,168,2.0,5.0,84,0.00,,SCT060,0.00,0.00,VWS V14.00,2013-01-11 09:29:00,
2013-01-11 04:34:00,73.4,68.3,30.14,SSE,168,5.0,7.0,84,0.00,,SCT060,0.00,0.00,VWS V14.00,2013-01-11 09:34:00,
2013-01-11 04:39:00,73.4,68.3,30.14,SSE,168,3.0,3.0,84,0.00,,SCT060,0.00,0.00,VWS V14.00,2013-01-11 09:39:00,
2013-01-11 04:44:00,73.4,68.3,30.14,SSE,168,2.0,3.0,84,0.00,,SCT060,0.00,0.00,VWS V14.00,2013-01-11 09:44:00,
2013-01-11 04:49:00,73.5,68.4,30.14,SSE,168,3.0,4.0,84,0.00,,SCT060,0.00,0.00,VWS V14.00,2013-01-11 09:49:00,
2013-01-11 04:54:00,73.5,68.4,30.14,SSE,168,0.0,3.0,84,0.00,,SCT060,0.00,0.00,VWS V14.00,2013-01-11 09:54:00,
2013-01-11 04:59:00,73.5,68.4,30.14,South,172,0.0,3.0,84,0.00,,SCT060,0.00,0.00,VWS V14.00,2013-01-11 09:59:00,
2013-01-11 05:04:00,73.6,68.5,30.14,South,171,0.0,0.0,84,0.00,,SCT060,0.00,0.00,VWS V14.00,2013-01-11 10:04:00,
2013-01-11 05:09:00,73.6,68.5,30.14,South,171,0.0,0.0,84,0.00,,SCT060,0.00,0.00,VWS V14.00,2013-01-11 10:09:00,
2013-01-11 05:14:00,73.6,68.8,30.14,South,171,3.0,4.0,85,0.00,,SCT060,0.00,0.00,VWS V14.00,2013-01-11 10:14:00,
2013-01-11 05:19:00,73.7,68.9,30.14,South,171,1.0,1.0,85,0.00,,SCT060,0.00,0.00,VWS V14.00,2013-01-11 10:19:00,
2013-01-11 05:24:00,73.7,68.9,30.13,South,179,0.0,4.0,85,0.00,,SCT060,0.00,0.00,VWS V14.00,2013-01-11 10:24:00,
2013-01-11 05:29:00,73.8,68.7,30.14,South,179,3.0,4.0,84,0.00,,SCT060,0.00,0.00,VWS V14.00,2013-01-11 10:29:00,
2013-01-11 05:34:00,73.7,68.6,30.14,South,179,3.0,3.0,84,0.00,,SCT060,0.00,0.00,VWS V14.00,2013-01-11 10:34:00,
2013-01-11 05:39:00,73.6,68.5,30.14,South,190,3.0,8.0,84,0.00,,SCT060,0.00,0.00,VWS V14.00,2013-01-11 10:39:00,
2013-01-11 05:44:00,73.5,68.0,30.14,South,191,5.0,7.0,83,0.00,,SCT060,0.00,0.00,VWS V14.00,2013-01-11 10:44:00,
2013-01-11 05:49:00,73.4,67.9,30.14,South,184,3.0,3.0,83,0.00,,SCT060,0.00,0.00,VWS V14.00,2013-01-11 10:49:00,
2013-01-11 05:54:00,73.3,67.8,30.13,South,182,4.0,4.0,83,0.00,,SCT060,0.00,0.00,VWS V14.00,2013-01-11 10:54:00,
2013-01-11 05:59:00,73.2,67.7,30.14,South,179,2.0,6.0,83,0.00,,SCT060,0.00,0.00,VWS V14.00,2013-01-11 10:59:00,
2013-01-11 06:04:00,73.2,67.7,30.14,South,180,0.0,3.0,83,0.00,,SCT060,0.00,0.00,VWS V14.00,2013-01-11 11:04:00,
2013-01-11 06:09:00,73.1,67.6,30.14,South,180,1.0,1.0,83,0.00,,SCT060,0.00,0.00,VWS V14.00,2013-01-11 11:09:00,
2013-01-11 06:14:00,73.1,67.6,30.14,South,180,2.0,3.0,83,0.00,,SCT060,0.00,0.00,VWS V14.00,2013-01-11 11:14:00,
2013-01-11 06:19:00,73.0,67.5,30.14,South,180,6.0,6.0,83,0.00,,SCT060,0.00,0.00,VWS V14.00,2013-01-11 11:19:00,
2013-01-11 06:24:00,73.0,67.5,30.14,South,180,0.0,3.0,83,0.00,,SCT060,0.00,0.00,VWS V14.00,2013-01-11 11:24:00,
2013-01-11 06:29:00,72.9,67.4,30.14,South,180,0.0,0.0,83,0.00,,SCT060,0.00,0.00,VWS V14.00,2013-01-11 11:29:00,
2013-01-11 06:34:00,72.8,67.3,30.14,South,180,0.0,4.0,83,0.00,,SCT060,0.00,0.00,VWS V14.00,2013-01-11 11:34:00,
2013-01-11 06:39:00,72.8,67.3,30.15,South,180,0.0,1.0,83,0.00,,SCT060,0.00,0.00,VWS V14.00,2013-01-11 11:39:00,
2013-01-11 06:45:00,72.7,67.2,30.15,South,180,0.0,0.0,83,0.00,,SCT060,0.00,0.00,VWS V14.00,2013-01-11 11:45:00,
2013-01-11 06:49:00,72.7,67.2,30.15,South,180,0.0,0.0,83,0.00,,SCT060,0.00,0.00,VWS V14.00,2013-01-11 11:49:00,
2013-01-11 06:55:00,72.6,67.2,30.15,South,180,0.0,0.0,83,0.00,,SCT060,0.00,0.00,VWS V14.00,2013-01-11 11:55:00,
2013-01-11 07:00:00,72.5,67.1,30.15,South,180,0.0,6.0,83,0.00,,SCT060,0.00,0.00,VWS V14.00,2013-01-11 12:00:00,
2013-01-11 07:05:00,72.4,66.9,30.15,South,180,2.0,2.0,83,0.00,,SCT060,0.00,0.00,VWS V14.00,2013-01-11 12:05:00,
2013-01-11 07:10:00,72.3,66.8,30.15,South,180,0.0,3.0,83,0.00,,SCT060,0.00,0.00,VWS V14.00,2013-01-11 12:10:00,
2013-01-11 07:15:00,72.2,66.8,30.15,South,180,0.0,4.0,83,0.00,,SCT060,0.00,0.00,VWS V14.00,2013-01-11 12:15:00,
2013-01-11 07:20:00,72.2,66.8,30.15,South,180,0.0,0.0,83,0.00,,SCT060,0.00,0.00,VWS V14.00,2013-01-11 12:20:00,
2013-01-11 07:25:00,72.2,66.8,30.15,South,180,0.0,0.0,83,0.00,,SCT060,0.00,5.00,VWS V14.00,2013-01-11 12:25:00,
2013-01-11 07:30:00,72.2,66.8,30.16,South,180,0.0,0.0,83,0.00,,SCT060,0.00,7.00,VWS V14.00,2013-01-11 12:30:00,
2013-01-11 07:35:00,72.3,66.8,30.16,South,180,0.0,3.0,83,0.00,,SCT016,0.00,21.00,VWS V14.00,2013-01-11 12:35:00,
2013-01-11 07:40:00,72.5,67.1,30.16,South,180,0.0,0.0,83,0.00,,SCT016,0.00,28.00,VWS V14.00,2013-01-11 12:40:00,
2013-01-11 07:45:00,72.8,67.0,30.16,South,180,0.0,0.0,82,0.00,,SCT016,0.00,21.00,VWS V14.00,2013-01-11 12:45:00,
2013-01-11 07:50:00,73.1,67.3,30.16,South,180,0.0,3.0,82,0.00,,SCT016,0.00,28.00,VWS V14.00,2013-01-11 12:50:00,
2013-01-11 07:55:00,73.5,67.7,30.16,South,180,0.0,6.0,82,0.00,,SCT016,0.00,37.00,VWS V14.00,2013-01-11 12:55:00,
2013-01-11 08:00:00,73.7,67.5,30.15,SE,134,0.0,2.0,81,0.00,,SCT016,0.00,18.00,VWS V14.00,2013-01-11 13:00:00,
2013-01-11 08:05:00,73.8,67.6,30.16,SE,134,0.0,1.0,81,0.00,,SCT016,0.00,21.00,VWS V14.00,2013-01-11 13:05:00,
2013-01-11 08:10:00,73.8,67.6,30.16,SSE,157,1.0,7.0,81,0.00,,SCT016,0.00,30.00,VWS V14.00,2013-01-11 13:10:00,
2013-01-11 08:15:00,73.9,67.7,30.17,SSE,157,0.0,0.0,81,0.00,,SCT016,0.00,60.00,VWS V14.00,2013-01-11 13:15:00,
2013-01-11 08:20:00,74.3,67.7,30.17,SSE,164,4.0,7.0,80,0.00,,SCT016,0.00,35.00,VWS V14.00,2013-01-11 13:20:00,
2013-01-11 08:25:00,74.6,68.0,30.16,SSE,164,0.0,1.0,80,0.00,,SCT016,0.00,44.00,VWS V14.00,2013-01-11 13:25:00,
2013-01-11 08:30:00,74.8,67.5,30.16,South,181,2.0,8.0,78,0.00,,SCT016,0.00,35.00,VWS V14.00,2013-01-11 13:30:00,
2013-01-11 08:35:00,75.0,67.7,30.17,South,180,0.0,5.0,78,0.00,,FEW015,0.00,51.00,VWS V14.00,2013-01-11 13:35:00,
2013-01-11 08:40:00,75.3,68.0,30.17,South,182,6.0,6.0,78,0.00,,FEW015,0.00,42.00,VWS V14.00,2013-01-11 13:40:00,
2013-01-11 08:45:00,75.6,67.9,30.17,South,182,3.0,3.0,77,0.00,,FEW015,0.00,32.00,VWS V14.00,2013-01-11 13:45:00,
2013-01-11 08:50:00,75.7,68.0,30.17,SSW,194,0.0,5.0,77,0.00,,FEW015,0.00,113.00,VWS V14.00,2013-01-11 13:50:00,
2013-01-11 08:55:00,76.1,68.4,30.17,South,185,6.0,8.0,77,0.00,,FEW015,0.00,104.00,VWS V14.00,2013-01-11 13:55:00,
2013-01-11 09:00:00,76.4,67.9,30.17,South,188,5.0,11.0,75,0.00,,FEW015,0.00,49.00,VWS V14.00,2013-01-11 14:00:00,
2013-01-11 09:05:00,76.4,67.9,30.17,SSW,195,2.0,8.0,75,0.00,,FEW015,0.00,77.00,VWS V14.00,2013-01-11 14:05:00,
2013-01-11 09:10:00,76.6,68.5,30.17,South,184,5.0,9.0,76,0.00,,FEW015,0.00,125.00,VWS V14.00,2013-01-11 14:10:00,
2013-01-11 09:15:00,76.9,68.4,30.17,South,170,3.0,6.0,75,0.00,,FEW015,0.00,116.00,VWS V14.00,2013-01-11 14:15:00,
2013-01-11 09:20:00,77.0,68.1,30.18,South,177,5.0,10.0,74,0.00,,FEW015,0.00,118.00,VWS V14.00,2013-01-11 14:20:00,
2013-01-11 09:25:00,76.9,67.6,30.18,SSE,166,7.0,9.0,73,0.00,,FEW015,0.00,60.00,VWS V14.00,2013-01-11 14:25:00,
2013-01-11 09:30:00,76.8,67.9,30.18,South,174,5.0,8.0,74,0.00,,FEW015,0.00,83.00,VWS V14.00,2013-01-11 14:30:00,
2013-01-11 09:35:00,76.9,68.0,30.18,SSE,163,7.0,9.0,74,0.00,,FEW015,0.00,93.00,VWS V14.00,2013-01-11 14:35:00,
2013-01-11 09:40:00,77.1,68.2,30.18,South,169,7.0,9.0,74,0.00,,FEW015,0.00,65.00,VWS V14.00,2013-01-11 14:40:00,
2013-01-11 09:45:00,77.0,67.7,30.18,SSE,154,10.0,14.0,73,0.00,,FEW015,0.00,69.00,VWS V14.00,2013-01-11 14:45:00,
2013-01-11 09:50:00,76.9,68.0,30.18,SSW,210,5.0,13.0,74,0.00,,FEW015,0.00,81.00,VWS V14.00,2013-01-11 14:50:00,
2013-01-11 09:55:00,77.1,67.8,30.19,SSE,159,1.0,10.0,73,0.00,,FEW015,0.00,69.00,VWS V14.00,2013-01-11 14:55:00,
2013-01-11 10:00:00,77.2,67.9,30.19,South,173,6.0,13.0,73,0.00,,FEW015,0.00,123.00,VWS V14.00,2013-01-11 15:00:00,
2013-01-11 10:05:00,77.4,68.1,30.19,South,183,3.0,9.0,73,0.00,,FEW015,0.00,70.00,VWS V14.00,2013-01-11 15:05:00,
2013-01-11 10:10:00,77.4,68.1,30.19,SSE,161,4.0,9.0,73,0.00,,FEW015,0.00,54.00,VWS V14.00,2013-01-11 15:10:00,
2013-01-11 10:15:00,77.3,68.4,30.19,South,190,2.0,5.0,74,0.00,,FEW015,0.00,56.00,VWS V14.00,2013-01-11 15:15:00,
2013-01-11 10:20:00,77.2,67.9,30.19,South,180,4.0,10.0,73,0.00,,FEW015,0.00,58.00,VWS V14.00,2013-01-11 15:20:00,
2013-01-11 10:25:00,77.1,67.8,30.19,SSE,161,7.0,11.0,73,0.00,,FEW015,0.00,60.00,VWS V14.00,2013-01-11 15:25:00,
2013-01-11 10:30:00,76.9,68.0,30.19,SSW,204,10.0,10.0,74,0.00,,FEW015,0.00,53.00,VWS V14.00,2013-01-11 15:30:00,
2013-01-11 10:35:00,76.9,68.4,30.19,SSE,161,5.0,9.0,75,0.00,,FEW015,0.00,47.00,VWS V14.00,2013-01-11 15:35:00,
2013-01-11 10:40:00,76.8,68.7,30.19,SSE,163,6.0,11.0,76,0.00,,FEW015,0.00,51.00,VWS V14.00,2013-01-11 15:40:00,
2013-01-11 10:45:00,76.6,68.5,30.19,South,169,3.0,7.0,76,0.00,,FEW015,0.00,44.00,VWS V14.00,2013-01-11 15:45:00,
2013-01-11 10:50:00,76.6,68.5,30.19,South,179,6.0,10.0,76,0.00,,FEW015,0.00,51.00,VWS V14.00,2013-01-11 15:50:00,
2013-01-11 10:55:00,76.4,68.7,30.19,SSE,167,8.0,11.0,77,0.00,,FEW015,0.00,86.00,VWS V14.00,2013-01-11 15:55:00,
2013-01-11 11:00:00,76.2,68.8,30.19,SSE,168,5.0,7.0,78,0.00,,FEW015,0.00,77.00,VWS V14.00,2013-01-11 16:00:00,
2013-01-11 11:05:00,76.2,68.8,30.18,SSE,162,0.0,6.0,78,0.00,,FEW015,0.00,54.00,VWS V14.00,2013-01-11 16:05:00,
2013-01-11 11:10:00,76.2,68.8,30.18,SSE,161,0.0,6.0,78,0.00,,FEW015,0.00,70.00,VWS V14.00,2013-01-11 16:10:00,
2013-01-11 11:15:00,76.3,69.3,30.18,SSE,165,5.0,8.0,79,0.00,,FEW015,0.00,62.00,VWS V14.00,2013-01-11 16:15:00,
2013-01-11 11:20:00,76.5,69.5,30.18,South,170,0.0,7.0,79,0.00,,FEW015,0.00,86.00,VWS V14.00,2013-01-11 16:20:00,
2013-01-11 11:25:00,76.8,69.8,30.18,South,169,4.0,8.0,79,0.00,,FEW015,0.00,88.00,VWS V14.00,2013-01-11 16:25:00,
2013-01-11 11:30:00,77.1,69.7,30.18,SSE,150,7.0,9.0,78,0.00,,FEW015,0.00,98.00,VWS V14.00,2013-01-11 16:30:00,
2013-01-11 11:35:00,77.4,69.6,30.17,SSE,161,9.0,15.0,77,0.00,,FEW015,0.00,93.00,VWS V14.00,2013-01-11 16:35:00,
2013-01-11 11:40:00,77.7,69.2,30.17,South,184,7.0,14.0,75,0.00,,FEW015,0.00,118.00,VWS V14.00,2013-01-11 16:40:00,
2013-01-11 11:45:00,78.0,69.4,30.17,South,177,7.0,14.0,75,0.00,,FEW015,0.00,107.00,VWS V14.00,2013-01-11 16:45:00,
2013-01-11 11:50:00,78.1,69.5,30.17,South,173,8.0,11.0,75,0.00,,FEW015,0.00,81.00,VWS V14.00,2013-01-11 16:50:00,
2013-01-11 11:55:00,78.2,69.6,30.17,SSE,155,6.0,11.0,75,0.00,,FEW015,0.00,160.00,VWS V14.00,2013-01-11 16:55:00,
2013-01-11 12:00:00,78.5,69.5,30.16,SSE,159,6.0,10.0,74,0.00,,FEW015,0.00,93.00,VWS V14.00,2013-01-11 17:00:00,
2013-01-11 12:05:00,78.7,68.5,30.17,SSE,168,15.0,15.0,71,0.00,,FEW015,0.00,118.00,VWS V14.00,2013-01-11 17:05:00,
2013-01-11 12:10:00,78.6,68.4,30.16,SSE,167,4.0,12.0,71,0.00,,FEW015,0.00,104.00,VWS V14.00,2013-01-11 17:10:00,
2013-01-11 12:15:00,78.9,68.7,30.16,South,169,5.0,13.0,71,0.00,,FEW015,0.00,79.00,VWS V14.00,2013-01-11 17:15:00,
2013-01-11 12:20:00,78.9,68.7,30.16,South,188,9.0,15.0,71,0.00,,FEW015,0.00,77.00,VWS V14.00,2013-01-11 17:20:00,
2013-01-11 12:26:00,78.7,68.9,30.16,South,182,5.0,11.0,72,0.00,,FEW015,0.00,74.00,VWS V14.00,2013-01-11 17:26:00,
2013-01-11 12:31:00,78.6,68.4,30.16,SSE,160,7.0,13.0,71,0.00,,FEW015,0.00,69.00,VWS V14.00,2013-01-11 17:31:00,
2013-01-11 12:36:00,78.7,68.9,30.15,South,181,10.0,12.0,72,0.00,,SCT060,0.00,90.00,VWS V14.00,2013-01-11 17:36:00,
2013-01-11 12:41:00,78.9,69.1,30.15,SSW,194,5.0,12.0,72,0.00,,SCT060,0.00,156.00,VWS V14.00,2013-01-11 17:41:00,
2013-01-11 12:46:00,79.6,68.5,30.15,SSE,154,3.0,15.0,69,0.00,,SCT060,0.00,137.00,VWS V14.00,2013-01-11 17:46:00,
2013-01-11 12:51:00,79.6,68.1,30.15,South,190,12.0,16.0,68,0.00,,SCT060,0.00,149.00,VWS V14.00,2013-01-11 17:51:00,
2013-01-11 12:56:00,79.6,69.0,30.14,SSE,155,6.0,10.0,70,0.00,,SCT060,0.00,135.00,VWS V14.00,2013-01-11 17:56:00,
2013-01-11 13:01:00,79.6,68.5,30.14,SSE,166,7.0,14.0,69,0.00,,SCT060,0.00,116.00,VWS V14.00,2013-01-11 18:01:00,
2013-01-11 13:06:00,79.5,68.4,30.14,SSE,165,11.0,20.0,69,0.00,,SCT060,0.00,137.00,VWS V14.00,2013-01-11 18:06:00,
2013-01-11 13:11:00,79.3,67.8,30.14,South,186,11.0,13.0,68,0.00,,SCT060,0.00,139.00,VWS V14.00,2013-01-11 18:11:00,
2013-01-11 13:16:00,79.4,68.8,30.14,SSE,148,4.0,6.0,70,0.00,,SCT060,0.00,135.00,VWS V14.00,2013-01-11 18:16:00,
2013-01-11 13:21:00,79.7,68.6,30.14,SSE,160,10.0,17.0,69,0.00,,SCT060,0.00,134.00,VWS V14.00,2013-01-11 18:21:00,
2013-01-11 13:26:00,79.6,69.4,30.14,SSE,152,4.0,11.0,71,0.00,,SCT060,0.00,127.00,VWS V14.00,2013-01-11 18:26:00,
2013-01-11 13:31:00,79.6,68.5,30.14,South,186,5.0,16.0,69,0.00,,SCT060,0.00,118.00,VWS V14.00,2013-01-11 18:31:00,
2013-01-11 13:36:00,79.5,68.0,30.14,South,180,7.0,17.0,68,0.00,,SCT060,0.00,127.00,VWS V14.00,2013-01-11 18:36:00,
2013-01-11 13:41:00,79.2,68.2,30.14,SSE,155,6.0,10.0,69,0.00,,SCT060,0.00,127.00,VWS V14.00,2013-01-11 18:41:00,
2013-01-11 13:46:00,79.1,68.5,30.14,SE,142,5.0,15.0,70,0.00,,SCT060,0.00,134.00,VWS V14.00,2013-01-11 18:46:00,
2013-01-11 13:51:00,79.0,68.4,30.14,SE,138,13.0,13.0,70,0.00,,SCT060,0.00,86.00,VWS V14.00,2013-01-11 18:51:00,
2013-01-11 13:56:00,78.7,67.7,30.14,SSE,161,12.0,15.0,69,0.00,,SCT060,0.00,72.00,VWS V14.00,2013-01-11 18:56:00,
2013-01-11 14:01:00,78.7,68.1,30.13,SSE,150,9.0,14.0,70,0.00,,SCT060,0.00,137.00,VWS V14.00,2013-01-11 19:01:00,
2013-01-11 14:06:00,78.9,68.7,30.13,SE,142,3.0,11.0,71,0.00,,SCT060,0.00,127.00,VWS V14.00,2013-01-11 19:06:00,
2013-01-11 14:11:00,79.2,69.4,30.12,SE,140,5.0,12.0,72,0.00,,SCT060,0.00,76.00,VWS V14.00,2013-01-11 19:11:00,
2013-01-11 14:16:00,78.9,69.5,30.12,SE,143,6.0,10.0,73,0.00,,SCT060,0.00,102.00,VWS V14.00,2013-01-11 19:16:00,
2013-01-11 14:21:00,78.9,69.1,30.12,SSE,153,12.0,13.0,72,0.00,,SCT060,0.00,105.00,VWS V14.00,2013-01-11 19:21:00,
2013-01-11 14:26:00,78.8,69.4,30.12,SSE,151,10.0,14.0,73,0.00,,SCT060,0.00,111.00,VWS V14.00,2013-01-11 19:26:00,
2013-01-11 14:31:00,78.8,69.4,30.12,South,173,10.0,11.0,73,0.00,,SCT060,0.00,104.00,VWS V14.00,2013-01-11 19:31:00,
2013-01-11 14:36:00,78.7,69.7,30.12,South,169,8.0,16.0,74,0.00,,SCT060,0.00,58.00,VWS V14.00,2013-01-11 19:36:00,
2013-01-11 14:41:00,78.2,69.6,30.12,SSE,161,11.0,13.0,75,0.00,,SCT060,0.00,104.00,VWS V14.00,2013-01-11 19:41:00,
2013-01-11 14:46:00,77.7,69.5,30.12,SSE,151,14.0,14.0,76,0.00,,SCT060,0.00,118.00,VWS V14.00,2013-01-11 19:46:00,
2013-01-11 14:51:00,77.3,69.2,30.12,SE,144,7.0,17.0,76,0.00,,SCT060,0.00,76.00,VWS V14.00,2013-01-11 19:51:00,
2013-01-11 14:56:00,77.1,69.0,30.12,SSE,162,8.0,18.0,76,0.00,,SCT060,0.00,69.00,VWS V14.00,2013-01-11 19:56:00,
2013-01-11 15:01:00,77.1,69.0,30.12,SE,126,6.0,10.0,76,0.00,,SCT060,0.00,109.00,VWS V14.00,2013-01-11 20:01:00,
2013-01-11 15:06:00,77.4,69.2,30.12,SSE,151,4.0,7.0,76,0.00,,SCT060,0.00,98.00,VWS V14.00,2013-01-11 20:06:00,
2013-01-11 15:11:00,77.5,69.3,30.11,SSE,165,6.0,9.0,76,0.00,,SCT060,0.00,123.00,VWS V14.00,2013-01-11 20:11:00,
2013-01-11 15:16:00,77.8,69.6,30.12,SE,144,8.0,9.0,76,0.00,,SCT060,0.00,83.00,VWS V14.00,2013-01-11 20:16:00,
2013-01-11 15:21:00,77.8,68.9,30.12,SSE,148,11.0,13.0,74,0.00,,SCT060,0.00,125.00,VWS V14.00,2013-01-11 20:21:00,
2013-01-11 15:26:00,77.9,69.3,30.12,SSE,148,5.0,11.0,75,0.00,,SCT060,0.00,107.00,VWS V14.00,2013-01-11 20:26:00,
2013-01-11 15:31:00,77.9,68.6,30.12,South,172,8.0,11.0,73,0.00,,SCT060,0.00,86.00,VWS V14.00,2013-01-11 20:31:00,
2013-01-11 15:36:00,77.7,68.8,30.12,SE,131,3.0,7.0,74,0.00,,SCT070,0.00,76.00,VWS V14.00,2013-01-11 20:36:00,
2013-01-11 15:41:00,77.5,68.6,30.12,SSE,153,4.0,10.0,74,0.00,,SCT070,0.00,91.00,VWS V14.00,2013-01-11 20:41:00,
2013-01-11 15:46:00,77.7,68.4,30.12,South,175,4.0,12.0,73,0.00,,SCT070,0.00,44.00,VWS V14.00,2013-01-11 20:46:00,
2013-01-11 15:51:00,77.5,68.2,30.12,ESE,119,2.0,9.0,73,0.00,,SCT070,0.00,72.00,VWS V14.00,2013-01-11 20:51:00,
2013-01-11 15:56:00,77.4,68.5,30.12,SE,146,6.0,8.0,74,0.00,,SCT070,0.00,42.00,VWS V14.00,2013-01-11 20:56:00,
2013-01-11 16:01:00,77.1,68.6,30.12,SE,132,3.0,6.0,75,0.00,,SCT070,0.00,58.00,VWS V14.00,2013-01-11 21:01:00,
2013-01-11 16:06:00,77.1,68.2,30.12,SE,144,4.0,11.0,74,0.00,,SCT070,0.00,56.00,VWS V14.00,2013-01-11 21:06:00,
2013-01-11 16:11:00,77.1,68.6,30.12,SE,130,5.0,10.0,75,0.00,,SCT070,0.00,58.00,VWS V14.00,2013-01-11 21:11:00,
2013-01-11 16:16:00,77.1,68.6,30.12,ESE,113,4.0,10.0,75,0.00,,SCT070,0.00,35.00,VWS V14.00,2013-01-11 21:16:00,
2013-01-11 16:22:00,76.9,68.8,30.12,SE,137,6.0,7.0,76,0.00,,SCT070,0.00,30.00,VWS V14.00,2013-01-11 21:22:00,
2013-01-11 16:27:00,76.6,68.5,30.12,SSE,153,9.0,15.0,76,0.00,,SCT070,0.00,60.00,VWS V14.00,2013-01-11 21:27:00,
2013-01-11 16:32:00,76.6,68.5,30.12,SSE,148,0.0,0.0,76,0.00,,SCT070,0.00,60.00,VWS V14.00,2013-01-11 21:32:00,
2013-01-11 16:37:00,76.6,68.5,30.12,SSE,147,0.0,0.0,76,0.00,,FEW070,0.00,44.00,VWS V14.00,2013-01-11 21:37:00,
2013-01-11 16:42:00,76.5,68.8,30.12,SE,143,4.0,10.0,77,0.00,,FEW070,0.00,32.00,VWS V14.00,2013-01-11 21:42:00,
2013-01-11 16:47:00,76.4,68.3,30.12,SE,145,6.0,7.0,76,0.00,,FEW070,0.00,28.00,VWS V14.00,2013-01-11 21:47:00,
2013-01-11 16:52:00,76.2,68.1,30.11,SE,124,9.0,12.0,76,0.00,,FEW070,0.00,26.00,VWS V14.00,2013-01-11 21:52:00,
2013-01-11 16:57:00,76.1,68.4,30.11,SSE,161,9.0,10.0,77,0.00,,FEW070,0.00,23.00,VWS V14.00,2013-01-11 21:57:00,
2013-01-11 17:02:00,76.0,68.3,30.11,SSE,152,6.0,15.0,77,0.00,,FEW070,0.00,18.00,VWS V14.00,2013-01-11 22:02:00,
2013-01-11 17:07:00,75.9,68.2,30.11,SSE,150,4.0,12.0,77,0.00,,FEW070,0.00,16.00,VWS V14.00,2013-01-11 22:07:00,
2013-01-11 17:12:00,75.8,68.1,30.11,SSE,165,0.0,5.0,77,0.00,,FEW070,0.00,12.00,VWS V14.00,2013-01-11 22:12:00,
2013-01-11 17:17:00,75.6,67.9,30.12,SE,140,6.0,11.0,77,0.00,,FEW070,0.00,11.00,VWS V14.00,2013-01-11 22:17:00,
2013-01-11 17:22:00,75.5,67.8,30.11,SSE,159,7.0,11.0,77,0.00,,FEW070,0.00,9.00,VWS V14.00,2013-01-11 22:22:00,
2013-01-11 17:27:00,75.3,67.6,30.12,SE,146,3.0,10.0,77,0.00,,FEW070,0.00,7.00,VWS V14.00,2013-01-11 22:27:00,
2013-01-11 17:32:00,75.2,67.5,30.12,SE,145,9.0,12.0,77,0.00,,FEW070,0.00,5.00,VWS V14.00,2013-01-11 22:32:00,
2013-01-11 17:37:00,75.1,67.4,30.11,SE,144,3.0,7.0,77,0.00,,FEW070,0.00,0.00,VWS V14.00,2013-01-11 22:37:00,
2013-01-11 17:42:00,75.0,67.3,30.11,SSE,148,0.0,3.0,77,0.00,,FEW070,0.00,0.00,VWS V14.00,2013-01-11 22:42:00,
2013-01-11 17:47:00,74.9,67.6,30.11,SE,141,1.0,5.0,78,0.00,,FEW070,0.00,0.00,VWS V14.00,2013-01-11 22:47:00,
2013-01-11 17:52:00,74.8,67.5,30.11,SE,140,3.0,6.0,78,0.00,,FEW070,0.00,0.00,VWS V14.00,2013-01-11 22:52:00,
2013-01-11 17:57:00,74.8,67.5,30.12,SE,142,4.0,6.0,78,0.00,,FEW070,0.00,0.00,VWS V14.00,2013-01-11 22:57:00,
2013-01-11 18:02:00,74.7,67.4,30.12,SE,140,3.0,6.0,78,0.00,,FEW070,0.00,0.00,VWS V14.00,2013-01-11 23:02:00,
2013-01-11 18:07:00,74.7,67.4,30.12,SE,141,7.0,7.0,78,0.00,,FEW070,0.00,0.00,VWS V14.00,2013-01-11 23:07:00,
2013-01-11 18:12:00,74.6,67.7,30.12,SE,142,0.0,1.0,79,0.00,,FEW070,0.00,0.00,VWS V14.00,2013-01-11 23:12:00,
2013-01-11 18:17:00,74.5,67.6,30.12,SE,142,3.0,5.0,79,0.00,,FEW070,0.00,0.00,VWS V14.00,2013-01-11 23:17:00,
2013-01-11 18:22:00,74.4,67.5,30.12,SE,143,3.0,6.0,79,0.00,,FEW070,0.00,0.00,VWS V14.00,2013-01-11 23:22:00,
2013-01-11 18:27:00,74.4,67.5,30.12,SSE,154,0.0,9.0,79,0.00,,FEW070,0.00,0.00,VWS V14.00,2013-01-11 23:27:00,
2013-01-11 18:32:00,74.4,67.5,30.12,SSE,152,0.0,4.0,79,0.00,,FEW060,0.00,0.00,VWS V14.00,2013-01-11 23:32:00,
2013-01-11 18:37:00,74.3,67.7,30.12,SE,146,0.0,3.0,80,0.00,,FEW060,0.00,0.00,VWS V14.00,2013-01-11 23:37:00,
2013-01-11 18:42:00,74.3,67.7,30.12,SE,145,2.0,5.0,80,0.00,,FEW060,0.00,0.00,VWS V14.00,2013-01-11 23:42:00,
2013-01-11 18:47:00,74.3,67.7,30.12,SE,144,0.0,2.0,80,0.00,,FEW060,0.00,0.00,VWS V14.00,2013-01-11 23:47:00,
2013-01-11 18:52:00,74.3,67.7,30.12,SE,140,3.0,12.0,80,0.00,,FEW060,0.00,0.00,VWS V14.00,2013-01-11 23:52:00,
2013-01-11 18:57:00,74.3,67.4,30.12,SE,146,0.0,6.0,79,0.00,,FEW060,0.00,0.00,VWS V14.00,2013-01-11 23:57:00,
2013-01-11 19:02:00,74.4,67.5,30.12,SSE,155,4.0,6.0,79,0.00,,FEW060,0.00,0.00,VWS V14.00,2013-01-12 00:02:00,
2013-01-11 19:07:00,74.4,67.1,30.12,SSE,148,1.0,5.0,78,0.00,,FEW060,0.00,0.00,VWS V14.00,2013-01-12 00:07:00,
2013-01-11 19:12:00,74.4,67.1,30.12,SSE,153,3.0,7.0,78,0.00,,FEW060,0.00,0.00,VWS V14.00,2013-01-12 00:12:00,
2013-01-11 19:17:00,74.4,67.1,30.12,SSE,153,0.0,3.0,78,0.00,,FEW060,0.00,0.00,VWS V14.00,2013-01-12 00:17:00,
2013-01-11 19:22:00,74.4,67.1,30.12,SSE,153,0.0,4.0,78,0.00,,FEW060,0.00,0.00,VWS V14.00,2013-01-12 00:22:00,
2013-01-11 19:27:00,74.3,67.0,30.12,SSE,153,2.0,3.0,78,0.00,,FEW060,0.00,0.00,VWS V14.00,2013-01-12 00:27:00,
2013-01-11 19:32:00,74.3,67.4,30.12,SSE,147,0.0,9.0,79,0.00,,FEW060,0.00,0.00,VWS V14.00,2013-01-12 00:32:00,
2013-01-11 19:37:00,74.3,67.4,30.12,SSE,147,3.0,5.0,79,0.00,,FEW060,0.00,0.00,VWS V14.00,2013-01-12 00:37:00,
2013-01-11 19:43:00,74.3,67.0,30.12,SSE,150,3.0,5.0,78,0.00,,FEW060,0.00,0.00,VWS V14.00,2013-01-12 00:43:00,
2013-01-11 19:48:00,74.3,67.4,30.12,SSE,150,3.0,4.0,79,0.00,,FEW060,0.00,0.00,VWS V14.00,2013-01-12 00:48:00,
2013-01-11 19:53:00,74.3,67.4,30.12,SSE,150,5.0,5.0,79,0.00,,FEW060,0.00,0.00,VWS V14.00,2013-01-12 00:53:00,
2013-01-11 19:58:00,74.3,67.4,30.12,SSE,149,0.0,7.0,79,0.00,,FEW060,0.00,0.00,VWS V14.00,2013-01-12 00:58:00,
2013-01-11 20:03:00,74.4,67.1,30.12,SSE,149,1.0,3.0,78,0.00,,FEW060,0.00,0.00,VWS V14.00,2013-01-12 01:03:00,
2013-01-11 20:08:00,74.4,67.5,30.12,SSE,149,3.0,6.0,79,0.00,,FEW060,0.00,0.00,VWS V14.00,2013-01-12 01:08:00,
2013-01-11 20:13:00,74.4,67.5,30.12,SSE,153,5.0,5.0,79,0.00,,FEW060,0.00,0.00,VWS V14.00,2013-01-12 01:13:00,
2013-01-11 20:18:00,74.5,67.6,30.13,SSE,152,4.0,4.0,79,0.00,,FEW060,0.00,0.00,VWS V14.00,2013-01-12 01:18:00,
2013-01-11 20:23:00,74.6,67.7,30.13,SSE,150,0.0,0.0,79,0.00,,FEW060,0.00,0.00,VWS V14.00,2013-01-12 01:23:00,
2013-01-11 20:28:00,74.6,67.7,30.13,SSE,149,1.0,10.0,79,0.00,,FEW060,0.00,0.00,VWS V14.00,2013-01-12 01:28:00,
2013-01-11 20:33:00,74.8,67.9,30.13,SSE,149,4.0,4.0,79,0.00,,FEW060,0.00,0.00,VWS V14.00,2013-01-12 01:33:00,
2013-01-11 20:38:00,74.8,67.9,30.13,SSE,150,1.0,7.0,79,0.00,,FEW060,0.00,0.00,VWS V14.00,2013-01-12 01:38:00,
2013-01-11 20:43:00,74.9,67.6,30.13,SE,140,2.0,6.0,78,0.00,,FEW060,0.00,0.00,VWS V14.00,2013-01-12 01:43:00,
2013-01-11 20:48:00,75.0,67.3,30.13,SSE,153,7.0,12.0,77,0.00,,FEW060,0.00,0.00,VWS V14.00,2013-01-12 01:48:00,
2013-01-11 20:53:00,75.1,67.4,30.13,SE,146,9.0,14.0,77,0.00,,FEW060,0.00,0.00,VWS V14.00,2013-01-12 01:53:00,
2013-01-11 20:58:00,75.1,67.0,30.13,SSE,150,2.0,10.0,76,0.00,,FEW060,0.00,0.00,VWS V14.00,2013-01-12 01:58:00,
2013-01-11 21:03:00,75.1,67.0,30.13,SE,143,4.0,10.0,76,0.00,,FEW060,0.00,0.00,VWS V14.00,2013-01-12 02:03:00,
2013-01-11 21:08:00,75.1,67.0,30.13,SSE,154,6.0,7.0,76,0.00,,FEW060,0.00,0.00,VWS V14.00,2013-01-12 02:08:00,
2013-01-11 21:13:00,75.1,67.0,30.13,SSE,150,5.0,5.0,76,0.00,,FEW060,0.00,0.00,VWS V14.00,2013-01-12 02:13:00,
2013-01-11 21:18:00,75.1,67.0,30.13,SE,128,5.0,10.0,76,0.00,,FEW060,0.00,0.00,VWS V14.00,2013-01-12 02:18:00,
2013-01-11 21:23:00,75.1,67.0,30.13,SE,126,3.0,6.0,76,0.00,,FEW060,0.00,0.00,VWS V14.00,2013-01-12 02:23:00,
2013-01-11 21:28:00,75.1,67.0,30.13,SE,134,5.0,11.0,76,0.00,,FEW060,0.00,0.00,VWS V14.00,2013-01-12 02:28:00,
2013-01-11 21:33:00,75.2,67.1,30.13,SE,135,2.0,10.0,76,0.00,,FEW060,0.00,0.00,VWS V14.00,2013-01-12 02:33:00,
2013-01-11 21:38:00,75.2,67.5,30.13,SE,132,4.0,12.0,77,0.00,,FEW060,0.00,0.00,VWS V14.00,2013-01-12 02:38:00,
2013-01-11 21:43:00,75.2,67.5,30.13,SE,138,2.0,10.0,77,0.00,,FEW060,0.00,0.00,VWS V14.00,2013-01-12 02:43:00,
2013-01-11 21:48:00,75.2,67.5,30.13,SE,138,4.0,6.0,77,0.00,,FEW060,0.00,0.00,VWS V14.00,2013-01-12 02:48:00,
2013-01-11 21:53:00,75.1,67.8,30.13,SE,146,6.0,7.0,78,0.00,,FEW060,0.00,0.00,VWS V14.00,2013-01-12 02:53:00,
2013-01-11 21:58:00,75.1,67.8,30.13,SSE,154,5.0,11.0,78,0.00,,FEW060,0.00,0.00,VWS V14.00,2013-01-12 02:58:00,
2013-01-11 22:03:00,75.0,67.7,30.12,SE,124,4.0,5.0,78,0.00,,FEW060,0.00,0.00,VWS V14.00,2013-01-12 03:03:00,
2013-01-11 22:08:00,75.0,67.7,30.12,SE,128,11.0,11.0,78,0.00,,FEW060,0.00,0.00,VWS V14.00,2013-01-12 03:08:00,
2013-01-11 22:13:00,75.0,67.7,30.13,SE,138,4.0,5.0,78,0.00,,FEW060,0.00,0.00,VWS V14.00,2013-01-12 03:13:00,
2013-01-11 22:18:00,74.9,67.6,30.12,SE,141,4.0,6.0,78,0.00,,FEW060,0.00,0.00,VWS V14.00,2013-01-12 03:18:00,
2013-01-11 22:23:00,74.8,67.5,30.13,SE,136,0.0,8.0,78,0.00,,FEW060,0.00,0.00,VWS V14.00,2013-01-12 03:23:00,
2013-01-11 22:28:00,74.8,67.5,30.13,ESE,123,4.0,9.0,78,0.00,,FEW060,0.00,0.00,VWS V14.00,2013-01-12 03:28:00,
2013-01-11 22:33:00,74.9,67.6,30.13,SE,126,4.0,5.0,78,0.00,,FEW060,0.00,0.00,VWS V14.00,2013-01-12 03:33:00,
2013-01-11 22:38:00,74.9,67.6,30.13,SE,131,0.0,1.0,78,0.00,,FEW060,0.00,0.00,VWS V14.00,2013-01-12 03:38:00,
2013-01-11 22:43:00,74.8,67.9,30.12,SE,138,3.0,9.0,79,0.00,,FEW060,0.00,0.00,VWS V14.00,2013-01-12 03:43:00,
2013-01-11 22:49:00,74.8,67.9,30.12,SE,141,4.0,9.0,79,0.00,,FEW060,0.00,0.00,VWS V14.00,2013-01-12 03:49:00,
2013-01-11 22:54:00,74.7,67.8,30.12,SE,142,4.0,4.0,79,0.00,,FEW060,0.00,0.00,VWS V14.00,2013-01-12 03:54:00,
2013-01-11 22:59:00,74.7,68.1,30.12,SE,145,0.0,5.0,80,0.00,,FEW060,0.00,0.00,VWS V14.00,2013-01-12 03:59:00,
2013-01-11 23:04:00,74.7,68.1,30.12,SE,139,2.0,10.0,80,0.00,,FEW060,0.00,0.00,VWS V14.00,2013-01-12 04:04:00,
2013-01-11 23:09:00,74.6,68.4,30.12,SSE,151,4.0,10.0,81,0.00,,FEW060,0.00,0.00,VWS V14.00,2013-01-12 04:09:00,
2013-01-11 23:14:00,74.3,68.4,30.12,SSE,151,2.0,7.0,82,0.00,,FEW060,0.00,0.00,VWS V14.00,2013-01-12 04:14:00,
2013-01-11 23:19:00,74.1,68.3,30.12,SSE,154,0.0,6.0,82,0.00,,FEW060,0.00,0.00,VWS V14.00,2013-01-12 04:19:00,
2013-01-11 23:24:00,74.0,68.2,30.12,SE,142,0.0,5.0,82,0.00,,FEW060,0.00,0.00,VWS V14.00,2013-01-12 04:24:00,
2013-01-11 23:29:00,73.9,68.1,30.11,SE,146,3.0,7.0,82,0.00,,FEW060,0.00,0.00,VWS V14.00,2013-01-12 04:29:00,
2013-01-11 23:34:00,74.0,68.2,30.11,SSE,157,6.0,9.0,82,0.00,,FEW060,0.00,0.00,VWS V14.00,2013-01-12 04:34:00,
2013-01-11 23:39:00,74.1,68.6,30.11,SE,129,6.0,14.0,83,0.00,,FEW060,0.00,0.00,VWS V14.00,2013-01-12 04:39:00,
2013-01-11 23:44:00,73.8,68.7,30.11,SSE,150,2.0,7.0,84,0.00,,FEW060,0.00,0.00,VWS V14.00,2013-01-12 04:44:00,
2013-01-11 23:49:00,73.5,68.7,30.11,SSE,153,2.0,4.0,85,0.00,,FEW060,0.00,0.00,VWS V14.00,2013-01-12 04:49:00,
2013-01-11 23:54:00,73.4,68.6,30.11,SE,139,4.0,5.0,85,0.00,,FEW060,0.00,0.00,VWS V14.00,2013-01-12 04:54:00,
2013-01-11 23:59:00,73.3,68.9,30.11,SE,138,0.0,1.0,86,0.00,,FEW060,0.00,0.00,VWS V14.00,2013-01-12 04:59:00,